Time;durP1;ratioP1;P1;durP2;ratioP2;P2;SDS_P1;SDS_P2;PMS_P1;PMS_P2;Temp;Humidity;BMP_temperature;BMP_pressure;BME280_temperature;BME280_humidity;BME280_pressure;Samples;Min_cycle;Max_cycle;Signal;HPM_P1;HPM_P2
2021/12/29 05:01:49;;;;;;;37.35;21.08;;;3.90;99.90;;;;;;5277407;23;20241;-67
2021/12/29 05:04:21;;;;;;;44.45;21.02;;;3.90;99.90;;;;;;4923995;29;20305;-68
2021/12/29 05:09:33;;;;;;;34.72;19.23;;;4.00;99.90;;;;;;4931630;29;20288;-67
2021/12/29 05:12:01;;;;;;;30.10;18.25;;;3.90;99.90;;;;;;4916522;29;20226;-67
2021/12/29 05:14:28;;;;;;;44.63;21.25;;;4.00;99.90;;;;;;4896066;29;20276;-68
2021/12/29 05:16:56;;;;;;;44.33;21.48;;;4.00;99.90;;;;;;4932732;23;20277;-71
2021/12/29 05:19:23;;;;;;;36.28;21.63;;;4.10;99.90;;;;;;4921459;29;20646;-70
2021/12/29 05:21:50;;;;;;;42.97;23.23;;;4.10;99.90;;;;;;4917464;29;20225;-71
2021/12/29 05:24:17;;;;;;;46.88;24.75;;;4.10;99.90;;;;;;4918125;29;20313;-70
2021/12/29 05:26:43;;;;;;;44.35;21.60;;;4.10;99.90;;;;;;4912558;29;20310;-71
2021/12/29 05:29:10;;;;;;;61.67;26.08;;;4.10;99.90;;;;;;4914305;29;20202;-71
2021/12/29 05:31:37;;;;;;;56.10;24.98;;;4.10;99.90;;;;;;4900266;29;20266;-70
2021/12/29 05:34:05;;;;;;;47.95;22.65;;;4.10;99.90;;;;;;4920792;29;20206;-71
2021/12/29 05:36:32;;;;;;;50.67;23.67;;;4.10;99.90;;;;;;4912918;29;20227;-71
2021/12/29 05:38:59;;;;;;;59.65;24.77;;;4.10;99.90;;;;;;4919917;29;20208;-71
2021/12/29 05:41:26;;;;;;;57.55;26.35;;;4.10;99.90;;;;;;4905224;29;20215;-71
2021/12/29 05:43:52;;;;;;;61.40;24.42;;;4.10;99.90;;;;;;4909895;29;20716;-72
2021/12/29 05:46:19;;;;;;;61.95;24.33;;;4.10;99.90;;;;;;4899353;29;20227;-72
2021/12/29 05:48:46;;;;;;;50.42;24.55;;;4.00;99.90;;;;;;4904840;29;20700;-71
2021/12/29 05:51:14;;;;;;;43.15;21.33;;;4.00;99.90;;;;;;4896786;29;20298;-71
2021/12/29 05:53:41;;;;;;;54.00;22.83;;;4.00;99.90;;;;;;4904582;29;20211;-71
2021/12/29 05:56:08;;;;;;;49.00;22.08;;;4.00;99.90;;;;;;4897407;29;20231;-71
2021/12/29 05:58:36;;;;;;;49.42;21.33;;;4.00;99.90;;;;;;4904529;29;20206;-71
2021/12/29 06:01:03;;;;;;;50.47;22.80;;;3.90;99.90;;;;;;4897096;29;20207;-71
2021/12/29 06:03:30;;;;;;;37.33;20.55;;;3.90;99.90;;;;;;4903592;29;20227;-71
2021/12/29 06:05:57;;;;;;;33.80;20.15;;;3.90;99.90;;;;;;4908833;29;20227;-71
2021/12/29 06:08:25;;;;;;;38.53;22.02;;;3.90;99.90;;;;;;4915965;29;20221;-71
2021/12/29 06:10:52;;;;;;;39.83;21.60;;;3.90;99.90;;;;;;4913991;29;20278;-72
2021/12/29 06:13:18;;;;;;;42.35;21.02;;;3.90;99.90;;;;;;4897667;29;20210;-71
2021/12/29 06:15:46;;;;;;;40.10;21.95;;;3.90;99.90;;;;;;4906276;29;20249;-72
2021/12/29 06:18:13;;;;;;;38.58;20.35;;;3.90;99.90;;;;;;4896965;29;20261;-72
2021/12/29 06:20:40;;;;;;;43.58;20.17;;;3.90;99.90;;;;;;4901363;29;20198;-72
2021/12/29 06:23:08;;;;;;;37.45;21.20;;;3.90;99.90;;;;;;4896750;29;20587;-71
2021/12/29 06:25:36;;;;;;;40.08;20.67;;;3.80;99.90;;;;;;4899404;29;20230;-71
2021/12/29 06:28:03;;;;;;;44.80;22.25;;;3.80;99.90;;;;;;4915708;29;20218;-71
2021/12/29 06:30:29;;;;;;;42.47;22.55;;;3.80;99.90;;;;;;4907881;29;20214;-71
2021/12/29 06:32:56;;;;;;;43.17;21.15;;;3.80;99.90;;;;;;4897278;29;20215;-72
2021/12/29 06:35:23;;;;;;;36.80;21.20;;;3.80;99.90;;;;;;4897525;29;20235;-72
2021/12/29 06:37:50;;;;;;;39.60;20.08;;;3.80;99.90;;;;;;4915981;29;20215;-72
2021/12/29 06:40:17;;;;;;;38.15;18.75;;;3.80;99.90;;;;;;4907944;29;20237;-72
2021/12/29 06:42:45;;;;;;;36.53;20.08;;;3.80;99.90;;;;;;4912859;29;20217;-72
2021/12/29 06:45:13;;;;;;;33.88;17.05;;;3.80;99.90;;;;;;4903778;29;20215;-72
2021/12/29 06:47:40;;;;;;;30.10;16.45;;;3.80;99.90;;;;;;4914326;29;20754;-72
2021/12/29 06:50:07;;;;;;;27.33;16.65;;;3.80;99.90;;;;;;4903240;29;20199;-72
2021/12/29 06:52:34;;;;;;;32.17;15.00;;;3.80;99.90;;;;;;4909068;29;20273;-72
2021/12/29 06:55:01;;;;;;;31.20;16.45;;;3.80;99.90;;;;;;4899846;29;20211;-72
2021/12/29 06:57:28;;;;;;;39.75;15.63;;;3.80;99.90;;;;;;4896640;29;20203;-72
2021/12/29 06:59:56;;;;;;;36.85;17.02;;;3.80;99.90;;;;;;4898311;29;20206;-72
2021/12/29 07:02:23;;;;;;;26.50;14.88;;;3.80;99.90;;;;;;4898438;29;20297;-72
2021/12/29 07:04:50;;;;;;;30.58;16.35;;;3.80;99.90;;;;;;4900689;29;20235;-72
2021/12/29 07:07:16;;;;;;;30.30;15.48;;;3.80;99.90;;;;;;4900497;29;20235;-72
2021/12/29 07:09:43;;;;;;;30.95;15.98;;;3.80;99.90;;;;;;4907192;29;20262;-72
2021/12/29 07:12:10;;;;;;;35.40;16.23;;;3.90;99.90;;;;;;4918791;29;20277;-72
2021/12/29 07:14:39;;;;;;;30.48;16.45;;;3.80;99.90;;;;;;4915499;29;20284;-72
2021/12/29 07:17:08;;;;;;;29.90;16.92;;;3.80;99.90;;;;;;4919023;29;20329;-72
2021/12/29 07:19:34;;;;;;;36.13;15.75;;;3.80;99.90;;;;;;4917746;29;20219;-72
2021/12/29 07:22:03;;;;;;;34.35;16.65;;;3.80;99.90;;;;;;4920434;29;20214;-72
2021/12/29 07:24:30;;;;;;;31.13;16.77;;;3.80;99.90;;;;;;4912680;29;20223;-72
2021/12/29 07:26:57;;;;;;;36.53;18.58;;;3.80;99.90;;;;;;4915088;29;20230;-72
2021/12/29 07:29:24;;;;;;;44.10;18.90;;;3.80;99.90;;;;;;4899340;29;20290;-72
2021/12/29 07:31:51;;;;;;;39.10;17.85;;;3.80;99.90;;;;;;4901083;29;20203;-71
2021/12/29 07:34:19;;;;;;;45.00;18.83;;;3.80;99.90;;;;;;4917046;29;20206;-70
2021/12/29 07:36:46;;;;;;;46.13;20.30;;;3.80;99.90;;;;;;4916156;29;20268;-71
2021/12/29 07:39:14;;;;;;;35.42;19.08;;;3.80;99.90;;;;;;4911998;29;20207;-70
2021/12/29 07:41:42;;;;;;;36.88;20.08;;;3.80;99.90;;;;;;4910331;29;20210;-70
2021/12/29 07:44:11;;;;;;;37.67;18.23;;;3.80;99.90;;;;;;4914417;29;20645;-70
2021/12/29 07:46:38;;;;;;;36.45;18.58;;;3.80;99.90;;;;;;4898782;29;20263;-70
2021/12/29 07:49:05;;;;;;;64.72;27.23;;;3.80;99.90;;;;;;4898701;29;20238;-70
2021/12/29 07:51:34;;;;;;;41.85;18.40;;;3.80;99.90;;;;;;4897937;29;20208;-71
2021/12/29 07:54:00;;;;;;;46.85;18.88;;;3.80;99.90;;;;;;4908126;29;20249;-70
2021/12/29 07:56:27;;;;;;;34.25;18.17;;;3.80;99.90;;;;;;4915123;29;20936;-70
2021/12/29 07:58:54;;;;;;;44.38;19.70;;;3.80;99.90;;;;;;4916811;29;20229;-70
2021/12/29 08:01:21;;;;;;;45.45;19.27;;;3.80;99.90;;;;;;4913883;29;20274;-70
2021/12/29 08:03:47;;;;;;;42.88;19.00;;;3.80;99.90;;;;;;4917556;29;20225;-70
2021/12/29 08:06:16;;;;;;;42.60;19.60;;;3.80;99.90;;;;;;4917882;29;20222;-70
2021/12/29 08:08:44;;;;;;;42.92;19.25;;;3.80;99.90;;;;;;4906423;29;20211;-70
2021/12/29 08:11:11;;;;;;;56.90;21.98;;;3.80;99.90;;;;;;4899446;29;20219;-71
2021/12/29 08:13:38;;;;;;;62.22;21.27;;;3.80;99.90;;;;;;4905040;29;20215;-71
2021/12/29 08:16:06;;;;;;;55.97;20.25;;;3.80;99.90;;;;;;4917975;29;20613;-71
2021/12/29 08:18:32;;;;;;;55.58;21.55;;;3.80;99.90;;;;;;4899808;29;20211;-71
2021/12/29 08:20:59;;;;;;;52.42;23.42;;;3.80;99.90;;;;;;4900399;29;20312;-71
2021/12/29 08:23:26;;;;;;;48.88;22.33;;;3.80;99.90;;;;;;4899383;29;20234;-71
2021/12/29 08:25:54;;;;;;;70.18;26.75;;;3.80;99.90;;;;;;4898382;29;20916;-71
2021/12/29 08:28:22;;;;;;;56.28;22.25;;;3.90;99.90;;;;;;4899827;29;20232;-71
2021/12/29 08:30:49;;;;;;;60.85;22.10;;;3.90;99.90;;;;;;4898760;29;20207;-70
2021/12/29 08:33:16;;;;;;;62.60;22.55;;;3.90;99.90;;;;;;4899891;29;20212;-70
2021/12/29 08:35:43;;;;;;;47.90;19.02;;;3.90;99.90;;;;;;4901906;29;20334;-71
2021/12/29 08:38:09;;;;;;;53.63;19.70;;;3.90;99.90;;;;;;4898930;29;20203;-71
2021/12/29 08:40:36;;;;;;;48.97;19.42;;;3.90;99.90;;;;;;4902801;29;20219;-71
2021/12/29 08:43:04;;;;;;;36.60;17.75;;;3.90;99.90;;;;;;4898405;29;20728;-71
2021/12/29 08:45:32;;;;;;;40.83;18.73;;;4.00;99.90;;;;;;4908779;29;20239;-69
2021/12/29 08:47:59;;;;;;;50.22;17.85;;;4.00;99.90;;;;;;4902115;29;20211;-71
2021/12/29 08:50:29;;;;;;;39.45;18.73;;;4.00;99.90;;;;;;4916189;29;20207;-71
2021/12/29 08:52:56;;;;;;;41.17;20.85;;;4.00;99.90;;;;;;4910891;29;20199;-70
2021/12/29 08:55:23;;;;;;;42.20;20.23;;;4.00;99.90;;;;;;4919920;29;20688;-70
2021/12/29 08:57:50;;;;;;;41.53;18.88;;;4.00;99.90;;;;;;4921420;29;20214;-69
2021/12/29 09:00:20;;;;;;;36.65;19.25;;;4.10;99.90;;;;;;4921222;29;20248;-70
2021/12/29 09:02:47;;;;;;;44.50;20.80;;;4.00;99.90;;;;;;4921592;29;20595;-70
2021/12/29 09:05:16;;;;;;;44.50;18.88;;;4.10;99.90;;;;;;4919528;29;20565;-70
2021/12/29 09:07:44;;;;;;;48.25;19.42;;;4.10;99.90;;;;;;4919570;29;20687;-70
2021/12/29 09:10:13;;;;;;;34.38;18.55;;;4.10;99.90;;;;;;4919138;29;20210;-70
2021/12/29 09:12:39;;;;;;;36.97;18.98;;;4.10;99.90;;;;;;4920576;29;20230;-71
2021/12/29 09:15:07;;;;;;;35.80;18.58;;;4.10;99.90;;;;;;4901661;29;20211;-71
2021/12/29 09:17:35;;;;;;;32.63;15.75;;;4.10;99.90;;;;;;4902372;29;20215;-71
2021/12/29 09:20:03;;;;;;;54.03;18.05;;;4.10;99.90;;;;;;4915877;29;20210;-70
2021/12/29 09:22:30;;;;;;;78.60;21.60;;;4.10;99.90;;;;;;4919582;29;20226;-70
2021/12/29 09:24:56;;;;;;;49.75;18.30;;;4.10;99.90;;;;;;4910792;29;20245;-71
2021/12/29 09:27:24;;;;;;;43.83;17.80;;;4.20;99.90;;;;;;4912386;29;20583;-71
2021/12/29 09:29:55;;;;;;;53.85;22.52;;;4.20;99.90;;;;;;4920348;29;20207;-70
2021/12/29 09:32:22;;;;;;;42.75;18.15;;;4.10;99.90;;;;;;4921200;29;20262;-70
2021/12/29 09:34:50;;;;;;;43.13;18.20;;;4.20;99.90;;;;;;4920579;29;20267;-70
2021/12/29 09:37:17;;;;;;;34.30;17.30;;;4.20;99.90;;;;;;4918730;29;20239;-70
2021/12/29 09:39:43;;;;;;;44.13;16.55;;;4.20;99.90;;;;;;4918000;29;20660;-70
2021/12/29 09:42:10;;;;;;;42.85;17.60;;;4.20;99.90;;;;;;4908705;29;20207;-70
2021/12/29 09:44:37;;;;;;;40.33;17.05;;;4.20;99.90;;;;;;4909684;29;20230;-70
2021/12/29 09:47:06;;;;;;;40.17;18.92;;;4.30;99.90;;;;;;4918679;29;20707;-70
2021/12/29 09:49:34;;;;;;;43.85;18.15;;;4.30;99.90;;;;;;4918760;29;20706;-70
2021/12/29 09:52:03;;;;;;;34.30;18.77;;;4.20;99.90;;;;;;4914246;29;20220;-69
2021/12/29 09:54:29;;;;;;;39.08;16.90;;;4.30;99.90;;;;;;4914557;29;20205;-70
2021/12/29 09:56:56;;;;;;;44.35;17.98;;;4.30;99.90;;;;;;4923049;29;20227;-71
2021/12/29 09:59:23;;;;;;;42.08;19.20;;;4.30;99.90;;;;;;4913111;29;20683;-71
2021/12/29 10:01:50;;;;;;;46.78;20.17;;;4.30;99.90;;;;;;4915195;29;20218;-71
2021/12/29 10:04:17;;;;;;;43.90;19.15;;;4.30;99.90;;;;;;4910584;29;20257;-71
2021/12/29 10:06:44;;;;;;;38.92;19.02;;;4.30;99.90;;;;;;4901503;29;20231;-71
2021/12/29 10:09:15;;;;;;;44.60;20.88;;;4.30;99.90;;;;;;4911881;29;20210;-70
2021/12/29 10:11:44;;;;;;;42.00;22.88;;;4.30;99.90;;;;;;4910322;29;20204;-69
2021/12/29 10:14:14;;;;;;;38.53;18.63;;;4.30;99.90;;;;;;4903033;29;20238;-70
2021/12/29 10:16:44;;;;;;;40.53;18.83;;;4.30;99.90;;;;;;4912275;29;20766;-70
2021/12/29 10:19:13;;;;;;;42.40;22.70;;;4.30;99.90;;;;;;4907230;29;20227;-70
2021/12/29 10:21:43;;;;;;;35.17;19.27;;;4.40;99.90;;;;;;4899565;29;20668;-70
2021/12/29 10:24:10;;;;;;;31.10;18.17;;;4.40;99.90;;;;;;4911280;29;20222;-71
2021/12/29 10:26:40;;;;;;;33.55;19.08;;;4.40;99.90;;;;;;4913063;29;20231;-70
2021/12/29 10:29:10;;;;;;;40.45;18.33;;;4.40;99.90;;;;;;4917416;29;20209;-69
2021/12/29 10:31:40;;;;;;;33.33;18.42;;;4.30;99.90;;;;;;4905459;29;20215;-69
2021/12/29 10:34:09;;;;;;;38.78;21.15;;;4.40;99.90;;;;;;4915360;29;20218;-70
2021/12/29 10:36:41;;;;;;;42.65;20.05;;;4.40;99.90;;;;;;4916435;29;20235;-70
2021/12/29 10:39:11;;;;;;;44.45;21.45;;;4.40;99.90;;;;;;4899171;29;20218;-70
2021/12/29 10:41:48;;;;;;;45.80;20.58;;;4.40;99.90;;;;;;4911038;29;20203;-70
2021/12/29 10:44:16;;;;;;;49.78;23.52;;;4.50;99.90;;;;;;4914625;29;20257;-70
2021/12/29 10:46:42;;;;;;;50.55;21.40;;;4.50;99.90;;;;;;4916786;29;20329;-69
2021/12/29 10:49:10;;;;;;;53.35;22.27;;;4.50;99.90;;;;;;4900762;29;20211;-69
2021/12/29 10:51:42;;;;;;;43.40;21.20;;;4.60;99.90;;;;;;4904160;29;20207;-70
2021/12/29 10:54:12;;;;;;;53.80;22.30;;;4.50;99.90;;;;;;4907710;29;20240;-70
2021/12/29 10:56:41;;;;;;;45.58;23.88;;;4.50;99.90;;;;;;4906477;29;20230;-70
2021/12/29 10:59:22;;;;;;;55.53;22.90;;;4.60;99.90;;;;;;4912823;29;20211;-70
2021/12/29 11:01:50;;;;;;;40.47;21.40;;;4.60;99.90;;;;;;4897941;29;20234;-69
2021/12/29 11:04:19;;;;;;;49.13;23.67;;;4.50;99.90;;;;;;4907636;29;20241;-70
2021/12/29 11:06:49;;;;;;;47.63;22.27;;;4.60;99.90;;;;;;4908804;29;20910;-70
2021/12/29 11:09:24;;;;;;;47.05;26.35;;;4.60;99.90;;;;;;4893449;29;20218;-74
2021/12/29 11:11:50;;;;;;;53.85;23.83;;;4.70;99.90;;;;;;4895967;29;20218;-69
2021/12/29 11:14:22;;;;;;;41.42;22.67;;;4.70;99.90;;;;;;4894970;29;20211;-69
2021/12/29 11:17:06;;;;;;;46.72;22.90;;;4.70;99.90;;;;;;4909066;29;20747;-71
2021/12/29 11:19:33;;;;;;;47.40;21.85;;;4.70;99.90;;;;;;4895980;29;20313;-71
2021/12/29 11:22:11;;;;;;;46.53;21.85;;;4.70;99.90;;;;;;4905831;29;20207;-71
2021/12/29 11:24:38;;;;;;;42.67;20.73;;;4.70;99.90;;;;;;4904102;29;20230;-71
2021/12/29 11:27:11;;;;;;;48.65;22.00;;;4.70;99.90;;;;;;4907795;29;20222;-71
2021/12/29 11:29:54;;;;;;;41.25;20.52;;;4.70;99.90;;;;;;4902460;29;20217;-71
2021/12/29 11:32:25;;;;;;;35.50;18.17;;;4.70;99.90;;;;;;4903397;29;20203;-71
2021/12/29 11:35:08;;;;;;;44.38;24.02;;;4.70;99.90;;;;;;4896843;29;20287;-71
2021/12/29 11:37:36;;;;;;;48.53;22.90;;;4.70;99.90;;;;;;4905115;29;20202;-72
2021/12/29 11:40:04;;;;;;;47.53;22.15;;;4.70;99.90;;;;;;4912957;29;20210;-72
2021/12/29 11:42:30;;;;;;;39.58;20.52;;;4.70;99.90;;;;;;4913718;29;20274;-70
2021/12/29 11:44:58;;;;;;;42.88;21.77;;;4.80;99.90;;;;;;4915240;29;20238;-71
2021/12/29 11:47:25;;;;;;;39.47;21.50;;;4.80;99.90;;;;;;4908639;29;20243;-71
2021/12/29 11:49:52;;;;;;;56.60;22.33;;;4.80;99.90;;;;;;4898651;29;20234;-69
2021/12/29 11:52:32;;;;;;;42.53;21.55;;;4.80;99.90;;;;;;4907367;29;20203;-69
2021/12/29 11:55:07;;;;;;;45.58;20.77;;;4.80;99.90;;;;;;4907672;29;20203;-70
2021/12/29 11:57:36;;;;;;;52.15;22.48;;;4.80;99.90;;;;;;4914602;29;20202;-70
2021/12/29 12:00:14;;;;;;;39.20;20.05;;;4.80;99.90;;;;;;4913461;29;20207;-70
2021/12/29 12:02:42;;;;;;;45.65;22.25;;;4.90;99.90;;;;;;4915653;29;20552;-71
2021/12/29 12:05:11;;;;;;;44.03;21.38;;;4.90;99.90;;;;;;4918323;29;20233;-71
2021/12/29 12:07:39;;;;;;;38.20;19.88;;;4.80;99.90;;;;;;4918527;29;20563;-71
2021/12/29 12:10:11;;;;;;;48.88;19.33;;;4.90;99.90;;;;;;4918314;29;20226;-71
2021/12/29 12:12:41;;;;;;;40.67;19.40;;;4.80;99.90;;;;;;4917459;29;20221;-71
2021/12/29 12:15:10;;;;;;;41.38;19.48;;;4.90;99.90;;;;;;4918056;29;20238;-71
2021/12/29 12:17:38;;;;;;;41.13;19.27;;;4.80;99.90;;;;;;4918655;29;20210;-71
2021/12/29 12:20:10;;;;;;;45.50;21.00;;;4.80;99.90;;;;;;4918544;29;20214;-71
2021/12/29 12:22:45;;;;;;;49.65;20.65;;;4.80;99.90;;;;;;4918048;29;20217;-71
2021/12/29 12:25:13;;;;;;;40.60;18.90;;;4.80;99.90;;;;;;4917596;29;20736;-71
2021/12/29 12:27:42;;;;;;;38.95;19.83;;;4.80;99.90;;;;;;4917590;29;20221;-71
2021/12/29 12:30:11;;;;;;;46.53;20.30;;;4.90;99.90;;;;;;4917788;29;20294;-71
2021/12/29 12:32:45;;;;;;;40.17;20.20;;;4.80;99.90;;;;;;4918667;29;20372;-71
2021/12/29 12:35:13;;;;;;;41.83;18.95;;;4.80;99.90;;;;;;4918635;29;20211;-71
2021/12/29 12:37:45;;;;;;;38.40;18.58;;;4.90;99.90;;;;;;4918980;29;20225;-71
2021/12/29 12:40:14;;;;;;;42.95;19.95;;;4.90;99.90;;;;;;4914306;29;20293;-70
2021/12/29 12:42:42;;;;;;;39.13;18.63;;;4.90;99.90;;;;;;4916519;29;20218;-70
2021/12/29 12:45:21;;;;;;;38.85;19.10;;;4.90;99.90;;;;;;4917636;29;20231;-71
2021/12/29 12:47:49;;;;;;;37.50;18.40;;;4.80;99.90;;;;;;4919116;29;20600;-72
2021/12/29 12:50:27;;;;;;;34.45;18.15;;;4.90;99.90;;;;;;4917423;29;20211;-71
2021/12/29 12:52:56;;;;;;;43.97;18.60;;;4.90;99.90;;;;;;4899194;29;20214;-72
2021/12/29 12:55:24;;;;;;;47.53;19.77;;;4.90;99.90;;;;;;4898144;29;20227;-72
2021/12/29 12:57:52;;;;;;;36.78;17.88;;;4.90;99.90;;;;;;4898553;29;20250;-72
2021/12/29 13:00:21;;;;;;;36.40;16.80;;;4.90;99.90;;;;;;4897003;29;20215;-71
2021/12/29 13:02:52;;;;;;;36.58;17.25;;;4.90;99.90;;;;;;4899719;29;20211;-72
2021/12/29 13:05:21;;;;;;;38.08;17.90;;;4.90;99.90;;;;;;4916655;29;20700;-71
2021/12/29 13:07:59;;;;;;;42.00;19.10;;;4.90;99.90;;;;;;4916951;29;20211;-71
2021/12/29 13:10:31;;;;;;;38.22;18.20;;;4.90;99.90;;;;;;4916255;29;20203;-71
2021/12/29 13:13:01;;;;;;;47.13;20.48;;;4.90;99.90;;;;;;4915754;29;20211;-71
2021/12/29 13:15:30;;;;;;;41.45;19.75;;;4.90;99.90;;;;;;4915886;29;20246;-71
2021/12/29 13:17:59;;;;;;;53.25;22.23;;;4.90;99.90;;;;;;4916766;29;20206;-71
2021/12/29 13:20:25;;;;;;;40.05;19.17;;;4.90;99.90;;;;;;4916542;29;20215;-71
2021/12/29 13:22:52;;;;;;;49.33;21.30;;;4.90;99.90;;;;;;4917006;29;20214;-71
2021/12/29 13:25:24;;;;;;;39.63;21.52;;;4.90;99.90;;;;;;4916318;29;20234;-71
2021/12/29 13:28:01;;;;;;;42.83;19.73;;;4.90;99.90;;;;;;4916647;29;20238;-71
2021/12/29 13:30:30;;;;;;;45.05;21.50;;;4.90;99.90;;;;;;4915197;29;20268;-71
2021/12/29 13:33:00;;;;;;;38.85;18.85;;;4.90;99.90;;;;;;4916913;29;20222;-71
2021/12/29 13:35:29;;;;;;;35.38;17.83;;;4.90;99.90;;;;;;4916704;29;20304;-71
2021/12/29 13:37:59;;;;;;;39.42;19.65;;;4.80;99.90;;;;;;4917258;29;20578;-71
2021/12/29 13:40:35;;;;;;;37.60;17.80;;;4.90;99.90;;;;;;4917086;29;20214;-71
2021/12/29 13:43:03;;;;;;;34.50;17.17;;;4.80;99.90;;;;;;4924031;29;20241;-71
2021/12/29 13:45:34;;;;;;;40.45;16.75;;;4.90;99.90;;;;;;4925301;29;20235;-71
2021/12/29 13:48:03;;;;;;;40.65;17.90;;;4.90;99.90;;;;;;4923172;29;20214;-71
2021/12/29 13:50:30;;;;;;;40.28;17.50;;;4.90;99.90;;;;;;4922885;29;20218;-72
2021/12/29 13:53:02;;;;;;;36.20;17.75;;;4.90;99.90;;;;;;4900931;29;20590;-71
2021/12/29 13:55:32;;;;;;;37.35;16.05;;;4.90;99.90;;;;;;4897256;29;20230;-72
2021/12/29 13:57:59;;;;;;;36.72;17.70;;;4.90;99.90;;;;;;4897423;29;20250;-71
2021/12/29 14:00:27;;;;;;;36.97;17.75;;;4.90;99.90;;;;;;4897246;29;20226;-70
2021/12/29 14:02:53;;;;;;;37.83;17.08;;;4.90;99.90;;;;;;4908920;29;20660;-70
2021/12/29 14:05:22;;;;;;;41.60;20.25;;;4.90;99.90;;;;;;4916766;29;20233;-71
2021/12/29 14:07:49;;;;;;;59.15;23.63;;;4.90;99.90;;;;;;4918194;29;20647;-71
2021/12/29 14:10:17;;;;;;;63.30;25.17;;;4.90;99.90;;;;;;4915829;29;20289;-71
2021/12/29 14:12:44;;;;;;;83.47;27.85;;;4.90;99.90;;;;;;4926397;29;20676;-71
2021/12/29 14:15:16;;;;;;;67.35;28.27;;;4.90;99.90;;;;;;4919512;29;20229;-71
2021/12/29 14:17:47;;;;;;;82.97;30.23;;;4.90;99.90;;;;;;4912594;29;20211;-71
2021/12/29 14:20:16;;;;;;;78.65;27.13;;;4.90;99.90;;;;;;4912212;29;20663;-71
2021/12/29 14:22:44;;;;;;;103.28;28.30;;;4.90;99.90;;;;;;4915575;29;20235;-71
2021/12/29 14:25:14;;;;;;;81.30;28.77;;;4.90;99.90;;;;;;4915152;29;20207;-71
2021/12/29 14:27:48;;;;;;;87.85;28.52;;;4.90;99.90;;;;;;4915153;29;20218;-71
2021/12/29 14:30:17;;;;;;;76.78;29.52;;;4.90;99.90;;;;;;4915564;29;20219;-71
2021/12/29 14:32:55;;;;;;;72.43;28.75;;;4.90;99.90;;;;;;4913048;29;20203;-71
2021/12/29 14:35:22;;;;;;;72.55;29.55;;;4.90;99.90;;;;;;4911335;29;20270;-70
2021/12/29 14:37:51;;;;;;;78.35;30.80;;;4.90;99.90;;;;;;4906361;29;20239;-70
2021/12/29 14:40:23;;;;;;;77.88;27.65;;;5.00;99.90;;;;;;4898528;29;20228;-71
2021/12/29 14:42:50;;;;;;;75.07;31.05;;;5.00;99.90;;;;;;4913235;29;20558;-70
2021/12/29 14:45:18;;;;;;;66.03;28.75;;;5.00;99.90;;;;;;4908945;29;20302;-71
2021/12/29 14:47:49;;;;;;;58.60;28.45;;;5.00;99.90;;;;;;4899617;29;20227;-70
2021/12/29 14:50:21;;;;;;;73.45;30.13;;;5.00;99.90;;;;;;4912308;29;20214;-70
2021/12/29 14:52:50;;;;;;;67.50;29.10;;;5.00;99.90;;;;;;4911910;29;20572;-70
2021/12/29 14:55:19;;;;;;;84.75;32.60;;;5.00;99.90;;;;;;4895919;29;20211;-70
2021/12/29 14:57:47;;;;;;;74.60;35.13;;;5.00;99.90;;;;;;4899037;29;20222;-70
2021/12/29 15:00:17;;;;;;;81.50;34.75;;;5.00;99.90;;;;;;4904801;29;20210;-70
2021/12/29 15:02:45;;;;;;;82.22;35.65;;;5.00;99.90;;;;;;4920584;29;20252;-71
2021/12/29 15:05:14;;;;;;;105.13;52.45;;;5.00;99.90;;;;;;4905027;29;20283;-70
2021/12/29 15:07:43;;;;;;;69.13;33.63;;;4.90;99.90;;;;;;4894076;29;20234;-70
2021/12/29 15:10:16;;;;;;;71.68;34.80;;;5.00;99.90;;;;;;4895642;29;20551;-70
2021/12/29 15:12:46;;;;;;;63.40;28.30;;;5.00;99.90;;;;;;4896663;29;20207;-71
2021/12/29 15:15:16;;;;;;;71.82;34.58;;;4.90;99.90;;;;;;4892332;29;20211;-70
2021/12/29 15:17:57;;;;;;;72.75;33.92;;;5.00;99.90;;;;;;4908202;29;20213;-70
2021/12/29 15:20:24;;;;;;;51.50;23.83;;;4.90;99.90;;;;;;4911493;29;20585;-70
2021/12/29 15:22:51;;;;;;;57.92;27.70;;;4.90;99.90;;;;;;4899000;29;20211;-70
2021/12/29 15:25:22;;;;;;;62.03;25.83;;;4.90;99.90;;;;;;4912098;29;20234;-71
2021/12/29 15:27:50;;;;;;;54.63;22.15;;;4.90;99.90;;;;;;4915053;29;20202;-70
2021/12/29 15:30:17;;;;;;;58.20;24.80;;;4.90;99.90;;;;;;4912299;29;20617;-70
2021/12/29 15:32:44;;;;;;;73.70;24.23;;;4.80;99.90;;;;;;4915888;29;20218;-70
2021/12/29 15:35:12;;;;;;;68.28;24.25;;;4.90;99.90;;;;;;4898609;29;20271;-70
2021/12/29 15:37:39;;;;;;;48.95;21.50;;;4.90;99.90;;;;;;4899192;29;20707;-71
2021/12/29 15:40:08;;;;;;;61.58;21.90;;;4.90;99.90;;;;;;4907743;29;20215;-71
2021/12/29 15:42:36;;;;;;;109.60;45.55;;;4.90;99.90;;;;;;4897854;29;20356;-71
2021/12/29 15:45:04;;;;;;;113.38;37.35;;;4.90;99.90;;;;;;4911082;29;20258;-71
2021/12/29 15:47:31;;;;;;;88.70;30.17;;;4.90;99.90;;;;;;4915294;29;20238;-71
2021/12/29 15:49:58;;;;;;;73.28;23.30;;;4.90;99.90;;;;;;4912288;29;20211;-70
2021/12/29 15:52:25;;;;;;;76.80;24.38;;;4.90;99.90;;;;;;4906739;29;20278;-71
2021/12/29 15:54:51;;;;;;;70.40;22.25;;;4.90;99.90;;;;;;4899790;29;20603;-71
2021/12/29 15:57:18;;;;;;;60.85;23.30;;;4.90;99.90;;;;;;4913875;29;20237;-70
2021/12/29 15:59:46;;;;;;;65.75;23.08;;;4.90;99.90;;;;;;4905524;29;20215;-70
2021/12/29 16:02:13;;;;;;;77.57;29.55;;;4.90;99.90;;;;;;4912477;29;20282;-70
2021/12/29 16:04:41;;;;;;;70.28;24.55;;;4.90;99.90;;;;;;4910925;29;20206;-71
2021/12/29 16:07:09;;;;;;;63.47;22.50;;;4.90;99.90;;;;;;4915916;29;20237;-71
2021/12/29 16:09:36;;;;;;;58.03;22.92;;;4.90;99.90;;;;;;4912888;29;20294;-71
2021/12/29 16:12:03;;;;;;;61.63;26.42;;;5.00;99.90;;;;;;4897940;29;20219;-70
2021/12/29 16:14:30;;;;;;;61.60;24.90;;;5.00;99.90;;;;;;4912762;29;20214;-71
2021/12/29 16:16:58;;;;;;;51.72;24.63;;;4.90;99.90;;;;;;4898991;29;20246;-71
2021/12/29 16:19:28;;;;;;;51.75;21.50;;;5.00;99.90;;;;;;4914476;29;20211;-71
2021/12/29 16:21:55;;;;;;;52.65;25.70;;;5.00;99.90;;;;;;4915079;29;20211;-72
2021/12/29 16:24:22;;;;;;;37.47;18.00;;;5.00;99.90;;;;;;4915905;29;20574;-72
2021/12/29 16:26:48;;;;;;;49.88;19.60;;;5.00;99.90;;;;;;4916863;29;20236;-72
2021/12/29 16:29:15;;;;;;;54.30;20.98;;;5.10;99.90;;;;;;4910460;29;20222;-72
2021/12/29 16:31:42;;;;;;;40.60;19.38;;;5.10;99.90;;;;;;4916039;29;20214;-72
2021/12/29 16:34:10;;;;;;;41.67;18.70;;;5.00;99.90;;;;;;4906700;29;20226;-72
2021/12/29 16:36:37;;;;;;;44.17;18.85;;;5.00;99.90;;;;;;4914719;29;20227;-73
2021/12/29 16:39:05;;;;;;;44.30;19.80;;;5.00;99.90;;;;;;4910783;29;20204;-73
2021/12/29 16:41:31;;;;;;;47.38;21.38;;;5.10;99.90;;;;;;4914289;29;20265;-71
2021/12/29 16:43:58;;;;;;;43.58;20.83;;;5.10;99.90;;;;;;4904291;29;20207;-72
2021/12/29 16:46:25;;;;;;;41.10;18.80;;;5.10;99.90;;;;;;4902868;29;20231;-72
2021/12/29 16:48:52;;;;;;;37.42;16.40;;;5.20;99.90;;;;;;4900690;29;20211;-72
2021/12/29 16:51:21;;;;;;;38.83;18.60;;;5.20;99.90;;;;;;4909927;29;20776;-71
2021/12/29 16:53:51;;;;;;;32.85;16.15;;;5.20;99.90;;;;;;4913041;29;20233;-72
2021/12/29 16:56:18;;;;;;;49.80;19.52;;;5.20;99.90;;;;;;4895638;29;20227;-72
2021/12/29 16:58:45;;;;;;;43.33;17.75;;;5.20;99.90;;;;;;4899588;29;20222;-72
2021/12/29 17:01:12;;;;;;;34.13;15.88;;;5.20;99.90;;;;;;4915398;29;20219;-72
2021/12/29 17:03:39;;;;;;;35.85;15.88;;;5.20;99.90;;;;;;4903640;29;20278;-71
2021/12/29 17:06:07;;;;;;;33.85;18.35;;;5.20;99.90;;;;;;4905787;29;20307;-72
2021/12/29 17:08:35;;;;;;;35.17;16.35;;;5.30;99.90;;;;;;4899388;29;20218;-70
2021/12/29 17:11:02;;;;;;;34.60;16.63;;;5.30;99.90;;;;;;4904112;29;20222;-71
2021/12/29 17:13:29;;;;;;;40.75;19.17;;;5.30;99.90;;;;;;4896581;29;20371;-70
2021/12/29 17:15:56;;;;;;;33.63;18.75;;;5.30;99.90;;;;;;4896071;29;20249;-71
2021/12/29 17:18:23;;;;;;;40.22;15.73;;;5.30;99.90;;;;;;4905227;29;20310;-72
2021/12/29 17:20:50;;;;;;;29.73;14.20;;;5.30;99.90;;;;;;4908375;29;20213;-70
2021/12/29 17:23:17;;;;;;;30.90;14.00;;;5.30;99.90;;;;;;4915595;29;20222;-70
2021/12/29 17:25:46;;;;;;;39.22;15.63;;;5.30;99.90;;;;;;4910210;29;20238;-71
2021/12/29 17:28:13;;;;;;;29.83;14.95;;;5.30;99.90;;;;;;4915039;29;20260;-72
2021/12/29 17:30:39;;;;;;;35.47;14.77;;;5.30;99.90;;;;;;4911383;29;20211;-71
2021/12/29 17:33:06;;;;;;;31.50;13.50;;;5.40;99.90;;;;;;4915056;29;20301;-71
2021/12/29 17:35:33;;;;;;;35.20;15.52;;;5.40;99.90;;;;;;4896183;29;20227;-70
2021/12/29 17:38:00;;;;;;;42.30;15.30;;;5.40;99.90;;;;;;4898361;29;20651;-71
2021/12/29 17:40:27;;;;;;;38.85;16.58;;;5.30;99.90;;;;;;4902374;29;20207;-70
2021/12/29 17:42:55;;;;;;;50.25;16.95;;;5.30;99.90;;;;;;4900846;29;20216;-70
2021/12/29 17:45:22;;;;;;;32.05;14.73;;;5.30;99.90;;;;;;4900332;29;20230;-71